createdAt,value
2023-04-27T00:15:54.979Z,10
2023-04-27T00:44:56.561Z,11
2023-04-27T01:13:56.799Z,11
2023-04-27T01:42:54.102Z,13
2023-04-27T02:11:50.832Z,18
2023-04-27T02:40:47.056Z,11
2023-04-27T03:09:45.680Z,10
2023-04-27T03:38:50.250Z,10
2023-04-27T04:07:48.361Z,10
2023-04-27T04:36:56.959Z,11
2023-04-27T05:05:58.860Z,14
2023-04-27T05:34:49.734Z,18
2023-04-27T06:03:46.331Z,15
2023-04-27T06:32:36.131Z,14
2023-04-27T07:01:37.255Z,19
2023-04-27T07:30:29.441Z,18
2023-04-27T07:59:40.498Z,18
2023-04-27T08:28:57.269Z,18
2023-04-27T08:58:13.284Z,17
2023-04-27T09:27:31.886Z,13
2023-04-27T09:56:34.006Z,11
2023-04-27T10:25:22.878Z,11
2023-04-27T10:54:30.940Z,11
2023-04-27T11:23:24.966Z,11
2023-04-27T11:52:44.986Z,10
2023-04-27T12:21:45.120Z,9
2023-04-27T12:50:53.462Z,7
2023-04-27T13:19:53.130Z,8
2023-04-27T13:48:59.287Z,5
2023-04-27T14:18:00.552Z,5
2023-04-27T14:46:56.435Z,5
2023-04-27T15:15:50.131Z,4
2023-04-27T15:44:46.312Z,4
2023-04-27T16:13:44.412Z,4
2023-04-27T16:42:44.915Z,4
2023-04-27T17:11:52.255Z,5
2023-04-27T17:40:56.960Z,6
2023-04-27T18:09:50.267Z,5
2023-04-27T18:38:51.072Z,6
2023-04-27T19:07:56.024Z,7
2023-04-27T19:36:58.988Z,8
2023-04-27T20:05:43.098Z,11
2023-04-27T20:34:23.284Z,8
2023-04-27T21:03:20.545Z,7
2023-04-27T21:31:55.070Z,6
2023-04-27T22:00:56.287Z,5
2023-04-27T22:29:59.537Z,6
2023-04-27T22:58:57.772Z,6
2023-04-27T23:27:52.082Z,5
2023-04-27T23:56:23.014Z,6
